北九州空港の過去48時間の天気

北九州空港 (Kitakyushu)

現在時刻: 4/26 20:19 JST (4/26 11:19 UTC) 以下の時間は現地時間です。

過去48時間のMETAR気象情報
時間 風向 風速(m/s) 視程 気温(℃) 湿度(%) 気圧(hPa) 天気現象
26 20:00 南東 2 10km以上 15 63 1012
26 19:00 南南東 2 10km以上 16 55 1012
26 18:00 2 10km以上 16 51 1012
26 17:00 南南東 2 10km以上 17 45 1012
26 16:00 不定 1 10km以上 17 45 1012
26 15:00 南東 2 10km以上 18 34 1012
26 14:00 南東 2 10km以上 16 48 1013
26 13:00 南東 3 10km以上 15 59 1013
26 12:00 南東 3 10km以上 14 63 1014
26 11:00 不定 2 10km以上 14 63 1015
26 10:00 東北東 2 10km以上 13 67 1015
26 09:00 東北東 2 10km以上 12 67 1015
26 08:00 北東 4 10km以上 12 71 1015
26 07:00 4 10km以上 12 71 1014
26 06:00 北北西 3 10km以上 11 76 1014
26 05:00 北北西 4 10km以上 11 76 1013
26 04:00 北北西 4 10km以上 11 76 1013
26 03:00 北西 3 10km以上 11 82 1013
26 02:00 西北西 3 10km以上 11 76 1013
26 01:00 北西 2 10km以上 11 76 1013
26 00:00 北西 2 10km以上 12 71 1013
25 23:00 西北西 3 10km以上 12 67 1013
25 22:00 北西 4 10km以上 12 71 1013
25 21:00 5 10km以上 12 67 1013
25 20:00 6 10km以上 13 67 1012
25 19:00 7 10km以上 13 72 1011
25 18:00 6 10km以上 15 67 1011
25 17:00 5 10km以上 15 67 1011
25 16:00 北北東 8 10km以上 14 77 1011
25 15:00 8 10km以上 14 77 1011 弱いしゅう雨
25 14:00 北北西 5 10km以上 15 72 1010 弱いしゅう雨
25 13:00 北北西 4 10km以上 15 72 1010 弱いしゅう雨
25 12:00 北西 5 10km以上 15 77 1011
25 11:00 北西 5 10km以上 14 82 1011
25 10:00 西北西 5 10km以上 14 77 1011
25 09:00 北西 4 10km以上 14 77 1010
25 08:00 北西 5 10km以上 14 77 1010
25 07:00 北北西 6 10km以上 14 77 1009
25 06:00 西北西 5 10km以上 14 82 1008
25 05:00 西北西 5 10km以上 14 82 1007
25 04:00 西北西 5 10km以上 14 82 1007
25 03:00 北西 4 10km以上 14 82 1007
25 02:00 西北西 5 10km以上 14 82 1006
25 01:30 8 10km以上 14 82 1006
25 01:00 北北西 3 10km以上 14 82 1006
25 00:00 北北西 4 10km以上 14 82 1006
24 23:00 西北西 6 10km以上 15 82 1006
24 22:00 北西 5 10km以上 15 82 1006
24 21:00 6 10km以上 15 82 1006 弱いしゅう雨
RJFR 261100Z 13003KT 090V170 CAVOK 15/08 Q1012
RJFR 261000Z 15004KT 120V190 CAVOK 16/07 Q1012
RJFR 260900Z 09003KT 040V150 9999 FEW045 SCT170 BKN/// 16/06 Q1012
RJFR 260800Z 15004KT 100V180 CAVOK 17/05 Q1012
RJFR 260700Z VRB02KT CAVOK 17/05 Q1012
RJFR 260600Z 13004KT 090V170 CAVOK 18/02 Q1012
RJFR 260500Z 13004KT 100V180 CAVOK 16/05 Q1013
RJFR 260400Z 14005KT 110V180 9999 FEW030 BKN/// 15/07 Q1013
RJFR 260300Z 14005KT 100V180 9999 FEW030 BKN/// 14/07 Q1014
RJFR 260200Z VRB03KT CAVOK 14/07 Q1015
RJFR 260100Z 07003KT 040V150 9999 FEW030 BKN/// 13/07 Q1015
RJFR 260000Z 07003KT 050V110 9999 FEW030 BKN/// 12/06 Q1015
RJFR 252300Z 04007KT 9999 FEW020 BKN/// 12/07 Q1015
RJFR 252200Z 01007KT 9999 FEW020 BKN/// 12/07 Q1014
RJFR 252100Z 34006KT 9999 FEW050 BKN/// 11/07 Q1014
RJFR 252000Z 34008KT 9999 FEW030 BKN/// 11/07 Q1013
RJFR 251900Z 34008KT CAVOK 11/07 Q1013
RJFR 251800Z 31005KT 9999 FEW030 BKN/// 11/08 Q1013
RJFR 251700Z 30006KT 9999 FEW030 11/07 Q1013
RJFR 251600Z 31004KT 9999 FEW030 11/07 Q1013
RJFR 251500Z 31004KT 9999 FEW030 12/07 Q1013
RJFR 251400Z 29005KT 9999 FEW030 12/06 Q1013
RJFR 251300Z 31007KT 9999 FEW025 12/07 Q1013
RJFR 251200Z 01010KT 9999 FEW025 12/06 Q1013
RJFR 251100Z 35012KT 9999 FEW030 SCT/// 13/07 Q1012
RJFR 251000Z 36013KT 9999 FEW030 SCT/// 13/08 Q1011
RJFR 250900Z 01012KT 9999 FEW030 BKN/// 15/09 Q1011
RJFR 250800Z 36010KT 9999 FEW015 SCT025 BKN/// 15/09 Q1011
RJFR 250700Z 02016KT 9999 FEW015 BKN020 14/10 Q1011
RJFR 250600Z 01015KT 9999 -SHRA SCT015 BKN020 14/10 Q1011
RJFR 250500Z 33009KT 9999 -SHRA BKN015 BKN020 15/10 Q1010
RJFR 250400Z 33008KT 9999 -SHRA BKN015 BKN020 15/10 Q1010
RJFR 250300Z 31010KT 9999 FEW015 BKN020 15/11 Q1011
RJFR 250200Z 31010KT 9999 FEW015 BKN020 14/11 Q1011
RJFR 250100Z 30010KT 9999 FEW015 BKN020 14/10 Q1011
RJFR 250000Z 31008KT 280V350 9999 FEW010 BKN020 14/10 Q1010
RJFR 242300Z 31010KT 9999 FEW010 BKN018 BKN025 14/10 Q1010
RJFR 242200Z 33011KT 300V360 9999 FEW010 BKN015 BKN025 14/10 Q1009
RJFR 242100Z 30009KT 9999 FEW010 BKN018 BKN025 14/11 Q1008
RJFR 242000Z 30010KT 9999 FEW008 SCT015 BKN020 14/11 Q1007
RJFR 241900Z 30009KT 9999 FEW008 BKN015 BKN020 14/11 Q1007
RJFR 241800Z 31008KT 9999 FEW010 BKN015 BKN020 14/11 Q1007
RJFR 241700Z 30010KT 9999 FEW010 SCT015 BKN025 14/11 Q1006
RJFR 241630Z 36016KT 9999 FEW010 SCT020 BKN030 14/11 Q1006 RMK 1ST010 3CU020 6CU030 A2972
RJFR 241600Z 33006KT 290V010 9999 FEW010 SCT020 BKN030 14/11 Q1006
RJFR 241500Z 34007KT 290V020 9999 FEW010 SCT015 BKN030 14/11 Q1006
RJFR 241400Z 30012KT 9999 FEW010 BKN020 BKN035 15/12 Q1006
RJFR 241300Z 32010KT 300V360 9999 FEW010 SCT015 BKN035 15/12 Q1006
RJFR 241200Z 35011KT 9999 -SHRA FEW005 SCT015 BKN035 15/12 Q1006